Pagrindinis puslapis
METAR-TAF:

METAR-TAF

Oro uostai :

Jask, Iranas

platuma: 26-38N, ilguma: 057-46E, Aukštis: 3 m

Dabartinis oras

Ataskaita buvo paskelbta 1 valandą ir 36 minutes, ne 21:00 UTC
Vėjas 6 kt iš Šiaurės Vakarų
Temperatūra 29°C
Drėgmė 94%
Slėgis 997 hPa
Matomumas: 4000 m
rūkana

METAR: OIZJ 052100Z 31006KT 4000 BR NSC 29/28 Q0997

Laikas: 03:06 (22:36 UTC)


TAF: trūkstamas

Orai ataskaitas ir orų prognozės (METAR, TAF).

turimą stotys yra geltonos ir raudonos taškus žemėlapyje.

Perkelti pele per norėdami pamatyti stoties vardą.

Tada spustelėkite, norėdami matyti oro stebėjimo ir prognozės.

Norėdami pakeisti žemėlapį: spustelėkite ant žalios mygtukų su juodo kryžiaus žemyn,; žalią mygtuką su brūkšneliu, jei norite nutolinti; arba žalių rodyklių gretimoms žemėlapius.


METAR-TAF: